KSTS

Charles M Schulz - Sonoma County Airport

Santa Rosa, California, USA
KSTS 251602Z 2516/2612 VRB03KT 1/2SM FG VV002 FM251700 VRB04KT P6SM BKN005 FM251800 VRB03KT P6SM SCT005 FM251900 19008KT P6SM SKC FM260400 VRB03KT P6SM SKC
Issued Valid From Valid To
Sep-25 @ 16:02 UTC
(an hour ago)
Sep-25 @ 16:00 UTC
(an hour ago)
Sep-26 @ 12:00 UTC
(in 19 hours)
Expired Click to View Sep-25 @ 16:00 to Sep-25 @ 17:00
KSTS 251602Z 2516/2612 VRB03KT 1/2SM FG VV002
Wind Visibility Clouds Conditions
Variable at 3 knots 1/2 miles
  • Vertical visibility at 200' AGL
  • Fog
From Sep-25 @ 17:00 to Sep-25 @ 18:00
FM251700 VRB04KT P6SM BKN005
Wind Visibility Clouds
Variable at 4 knots Greater than 6 miles
  • Broken at 500' AGL
From Sep-25 @ 18:00 to Sep-25 @ 19:00
FM251800 VRB03KT P6SM SCT005
Wind Visibility Clouds
Variable at 3 knots Greater than 6 miles
  • Scattered at 500' AGL
From Sep-25 @ 19:00 to Sep-26 @ 04:00
FM251900 19008KT P6SM SKC
Wind Visibility Clouds
190° at 8 knots Greater than 6 miles
  • Clear skies
From Sep-26 @ 04:00 to Sep-26 @ 12:00
FM260400 VRB03KT P6SM SKC
Wind Visibility Clouds
Variable at 3 knots Greater than 6 miles
  • Clear skies
KSTS 251602Z 2516/2612 VRB03KT 1/2SM FG VV002 FM251700 VRB04KT P6SM BKN005 FM251800 VRB03KT P6SM SCT005 FM251900 19008KT P6SM SKC FM260400 VRB03KT P6SM SKC
Issued Sep-25 @ 16:02 UTC
(an hour ago)
Valid From Sep-25 @ 16:00 UTC
(an hour ago)
Valid To Sep-26 @ 12:00 UTC
(in 19 hours)
Sep-25 @ 16:00 - Sep-25 @ 17:00
Wind Visibility
Variable at 3 knots 1/2 miles
Clouds
  • Vertical visibility at 200' AGL
Conditions
  • Fog
From Sep-25 @ 17:00 - Sep-25 @ 18:00
Wind Visibility
Variable at 4 knots Greater than 6 miles
Clouds
  • Broken at 500' AGL
From Sep-25 @ 18:00 - Sep-25 @ 19:00
Wind Visibility
Variable at 3 knots Greater than 6 miles
Clouds
  • Scattered at 500' AGL
From Sep-25 @ 19:00 - Sep-26 @ 04:00
Wind Visibility
190° at 8 knots Greater than 6 miles
Clouds
  • Clear skies
From Sep-26 @ 04:00 - Sep-26 @ 12:00
Wind Visibility
Variable at 3 knots Greater than 6 miles
Clouds
  • Clear skies